createdAt,value
2019-03-27T00:01:10.855Z,102520.12
2019-03-27T00:03:39.417Z,102519.49
2019-03-27T00:06:07.961Z,102512.76
2019-03-27T00:08:36.440Z,102513.86
2019-03-27T00:11:04.996Z,102508.95
2019-03-27T00:13:33.488Z,102512.58
2019-03-27T00:16:01.992Z,102516.02
2019-03-27T00:18:30.560Z,102518.30
2019-03-27T00:20:59.031Z,102522.48
2019-03-27T00:23:27.608Z,102518.77
2019-03-27T00:25:56.062Z,102517.42
2019-03-27T00:28:24.601Z,102513.86
2019-03-27T00:30:53.086Z,102510.78
2019-03-27T00:33:21.624Z,102505.28
2019-03-27T00:35:50.131Z,102507.19
2019-03-27T00:38:18.578Z,102504.17
2019-03-27T00:40:47.074Z,102502.97
2019-03-27T00:43:15.552Z,102404.86
2019-03-27T00:45:44.006Z,102507.25
2019-03-27T00:48:12.535Z,102498.36
2019-03-27T00:50:40.997Z,102494.42
2019-03-27T00:53:09.510Z,102490.53
2019-03-27T00:55:37.997Z,102486.87
2019-03-27T00:58:06.638Z,102489.42
2019-03-27T01:00:47.060Z,102496.73
2019-03-27T01:03:15.635Z,102493.87
2019-03-27T01:05:44.142Z,102498.22
2019-03-27T01:08:12.626Z,102504.32
2019-03-27T01:10:41.117Z,102496.16
2019-03-27T01:13:09.698Z,102488.61
2019-03-27T01:15:40.443Z,102488.61
2019-03-27T01:18:08.984Z,102489.66
2019-03-27T01:20:37.498Z,102486.78
2019-03-27T01:23:05.970Z,102480.98
2019-03-27T01:25:34.444Z,102484.16
2019-03-27T01:28:04.613Z,102486.06
2019-03-27T01:30:33.088Z,102481.61
2019-03-27T01:33:03.112Z,102480.25
2019-03-27T01:35:31.585Z,102483.85
2019-03-27T01:38:00.056Z,102481.30
2019-03-27T01:40:28.589Z,102482.02
2019-03-27T01:42:57.084Z,102477.32
2019-03-27T01:45:25.562Z,102483.45
2019-03-27T01:47:54.040Z,102475.03
2019-03-27T01:50:22.633Z,102473.20
2019-03-27T01:52:53.148Z,102477.66
2019-03-27T01:55:21.504Z,102477.97
2019-03-27T01:57:50.045Z,102393.84
2019-03-27T02:00:18.683Z,102477.48
2019-03-27T02:02:49.242Z,102477.83
2019-03-27T02:05:17.966Z,102477.41
2019-03-27T02:07:46.752Z,102482.42
2019-03-27T02:10:17.451Z,102483.63
2019-03-27T02:12:45.945Z,102488.30
2019-03-27T02:15:14.687Z,102486.70
2019-03-27T02:17:45.609Z,102479.25
2019-03-27T02:20:14.294Z,102488.47
2019-03-27T02:22:44.474Z,102485.19
2019-03-27T02:25:14.869Z,102484.33
2019-03-27T02:27:43.415Z,102483.05
2019-03-27T02:30:12.346Z,102484.58
2019-03-27T02:32:40.874Z,102488.75
2019-03-27T02:35:09.468Z,102484.40
2019-03-27T02:37:37.968Z,102479.86
2019-03-27T02:40:12.613Z,102478.77
2019-03-27T02:42:43.025Z,102479.48
2019-03-27T02:45:11.890Z,102481.53
2019-03-27T02:47:40.417Z,102479.88
2019-03-27T02:50:10.630Z,102477.34
2019-03-27T02:52:41.931Z,102479.97
2019-03-27T02:55:10.792Z,102481.88
2019-03-27T02:57:39.258Z,102477.48
2019-03-27T03:00:12.485Z,102473.37
2019-03-27T03:02:41.108Z,102476.16
2019-03-27T03:05:10.724Z,102480.34
2019-03-27T03:07:39.186Z,102483.37
2019-03-27T03:10:10.768Z,102479.32
2019-03-27T03:12:39.220Z,102476.06
2019-03-27T03:15:10.553Z,102468.91
2019-03-27T03:17:39.025Z,102471.86
2019-03-27T03:20:08.776Z,102474.30
2019-03-27T03:22:40.610Z,102473.52
2019-03-27T03:25:09.751Z,102484.41
2019-03-27T03:27:38.277Z,102482.95
2019-03-27T03:30:13.066Z,102473.69
2019-03-27T03:32:41.586Z,102482.17
2019-03-27T03:35:10.826Z,102478.84
2019-03-27T03:37:39.337Z,102485.48
2019-03-27T03:40:11.100Z,102489.53
2019-03-27T03:42:40.567Z,102494.77
2019-03-27T03:45:09.405Z,102495.14
2019-03-27T03:47:37.876Z,102499.36
2019-03-27T03:50:07.572Z,102507.83
2019-03-27T03:52:36.153Z,102501.16
2019-03-27T03:55:06.123Z,102496.17
2019-03-27T03:57:37.220Z,102493.23
2019-03-27T04:00:07.663Z,102493.80
2019-03-27T04:02:37.427Z,102490.02
2019-03-27T04:05:07.693Z,102491.20
2019-03-27T04:07:36.144Z,102491.13
2019-03-27T04:10:06.801Z,102498.73
2019-03-27T04:12:35.738Z,102494.06
2019-03-27T04:15:05.702Z,102497.31
2019-03-27T04:17:34.198Z,102499.45
2019-03-27T04:20:02.840Z,102507.48
2019-03-27T04:22:31.333Z,102508.52
2019-03-27T04:24:59.821Z,102513.74
2019-03-27T04:27:28.292Z,102513.30
2019-03-27T04:29:56.755Z,102507.17
2019-03-27T04:32:25.242Z,102512.25
2019-03-27T04:34:53.706Z,102513.44
2019-03-27T04:37:22.183Z,102515.89
2019-03-27T04:39:50.760Z,102514.95
2019-03-27T04:42:19.222Z,102513.74
2019-03-27T04:44:47.721Z,102517.23
2019-03-27T04:47:31.139Z,102521.91
2019-03-27T04:49:46.406Z,102522.47
2019-03-27T04:52:14.878Z,102527.13
2019-03-27T04:54:43.358Z,102527.06
2019-03-27T04:57:11.821Z,102528.83
2019-03-27T04:59:40.284Z,102534.60
2019-03-27T05:02:08.764Z,102534.39
2019-03-27T05:04:37.598Z,102534.84
2019-03-27T05:07:06.096Z,102536.37
2019-03-27T05:09:34.572Z,102532.18
2019-03-27T05:12:03.150Z,102544.32
2019-03-27T05:14:33.335Z,102538.03
2019-03-27T05:17:01.789Z,102548.52
2019-03-27T05:19:30.270Z,102537.02
2019-03-27T05:21:58.726Z,102540.17
2019-03-27T05:24:27.210Z,102536.61
2019-03-27T05:26:55.661Z,102550.41
2019-03-27T05:29:24.150Z,102539.16
2019-03-27T05:31:52.625Z,102537.64
2019-03-27T05:34:24.234Z,102541.77
2019-03-27T05:36:52.737Z,102544.73
2019-03-27T05:39:21.765Z,102544.73
2019-03-27T05:41:52.299Z,102546.47
2019-03-27T05:44:20.832Z,102547.67
2019-03-27T05:46:51.400Z,102550.30
2019-03-27T05:49:19.941Z,102547.02
2019-03-27T05:51:48.436Z,102549.16
2019-03-27T05:54:16.903Z,102541.55
2019-03-27T05:56:45.487Z,102543.55
2019-03-27T05:59:14.021Z,102544.59
2019-03-27T06:01:43.044Z,102545.45
2019-03-27T06:04:11.538Z,102540.61
2019-03-27T06:06:40.043Z,102547.45
2019-03-27T06:09:08.515Z,102553.48
2019-03-27T06:11:37.009Z,102552.20
2019-03-27T06:14:08.471Z,102552.44
2019-03-27T06:16:36.977Z,102548.63
2019-03-27T06:19:05.451Z,102543.23
2019-03-27T06:21:33.950Z,102546.61
2019-03-27T06:24:02.486Z,102546.42
2019-03-27T06:26:33.788Z,102551.90
2019-03-27T06:29:04.437Z,102549.84
2019-03-27T06:31:32.981Z,102554.44
2019-03-27T06:34:04.730Z,102550.95
2019-03-27T06:36:33.205Z,102554.77
2019-03-27T06:39:01.706Z,102553.89
2019-03-27T06:41:30.177Z,102557.16
2019-03-27T06:43:58.658Z,102552.41
2019-03-27T06:46:29.121Z,102556.20
2019-03-27T06:48:57.689Z,102551.28
2019-03-27T06:51:40.416Z,102556.59
2019-03-27T06:54:06.707Z,102553.66
2019-03-27T06:56:35.173Z,102558.66
2019-03-27T06:59:04.074Z,102555.55
2019-03-27T07:01:33.756Z,102546.09
2019-03-27T07:04:10.372Z,102554.77
2019-03-27T07:06:32.395Z,102553.80
2019-03-27T07:09:01.073Z,102559.21
2019-03-27T07:11:29.531Z,102555.69
2019-03-27T07:13:58.021Z,102559.51
2019-03-27T07:16:26.510Z,102556.17
2019-03-27T07:18:54.958Z,102552.98
2019-03-27T07:21:23.432Z,102558.39
2019-03-27T07:23:51.959Z,102554.56
2019-03-27T07:26:20.446Z,102552.49
2019-03-27T07:28:50.632Z,102569.50
2019-03-27T07:31:19.138Z,102577.45
2019-03-27T07:33:47.619Z,102575.44
2019-03-27T07:36:16.097Z,102576.14
2019-03-27T07:38:44.647Z,102577.34
2019-03-27T07:41:13.120Z,102593.11
2019-03-27T07:43:42.038Z,102590.08
2019-03-27T07:46:10.488Z,102591.98
2019-03-27T07:48:38.958Z,102593.48
2019-03-27T07:51:07.510Z,102596.34
2019-03-27T07:53:36.050Z,102591.23
2019-03-27T07:56:04.786Z,102593.64
2019-03-27T07:58:33.265Z,102599.19
2019-03-27T08:01:01.752Z,102600.36
2019-03-27T08:03:30.258Z,102597.41
2019-03-27T08:05:58.807Z,102598.29
2019-03-27T08:08:28.940Z,102599.37
2019-03-27T08:11:00.126Z,102595.86
2019-03-27T08:13:28.602Z,102597.02
2019-03-27T08:15:58.590Z,102598.44
2019-03-27T08:18:27.088Z,102592.10
2019-03-27T08:20:55.618Z,102595.45
2019-03-27T08:23:24.170Z,102591.33
2019-03-27T08:25:52.702Z,102591.05
2019-03-27T08:28:21.192Z,102594.51
2019-03-27T08:30:49.662Z,102601.22
2019-03-27T08:33:18.245Z,102603.63
2019-03-27T08:35:46.737Z,102604.98
2019-03-27T08:38:15.272Z,102599.57
2019-03-27T08:40:43.824Z,102595.73
2019-03-27T08:43:21.084Z,102596.73
2019-03-27T08:45:42.502Z,102598.30
2019-03-27T08:48:10.952Z,102602.20
2019-03-27T08:50:39.870Z,102602.96
2019-03-27T08:53:08.354Z,102597.94
2019-03-27T08:55:36.832Z,102607.86
2019-03-27T08:58:05.820Z,102610.44
2019-03-27T09:00:54.290Z,102613.30
2019-03-27T09:03:24.159Z,102615.11
2019-03-27T09:05:52.732Z,102608.56
2019-03-27T09:08:22.739Z,102606.34
2019-03-27T09:10:51.307Z,102620.74
2019-03-27T09:13:19.937Z,102608.77
2019-03-27T09:15:48.490Z,102612.18
2019-03-27T09:18:17.165Z,102615.67
2019-03-27T09:20:45.736Z,102611.36
2019-03-27T09:23:14.324Z,102622.84
2019-03-27T09:25:42.798Z,102623.67
2019-03-27T09:28:11.269Z,102626.19
2019-03-27T09:30:42.815Z,102632.14
2019-03-27T09:33:12.924Z,102631.40
2019-03-27T09:35:42.926Z,102627.09
2019-03-27T09:38:11.457Z,102634.32
2019-03-27T09:40:44.077Z,102630.63
2019-03-27T09:43:12.547Z,102634.85
2019-03-27T09:45:41.404Z,102628.20
2019-03-27T09:48:10.021Z,102639.78
2019-03-27T09:50:38.507Z,102634.77
2019-03-27T09:53:07.032Z,102620.90
2019-03-27T09:55:35.528Z,102630.30
2019-03-27T09:58:04.146Z,102627.50
2019-03-27T10:00:47.365Z,102629.92
2019-03-27T10:03:15.834Z,102625.81
2019-03-27T10:05:46.917Z,102632.78
2019-03-27T10:08:15.376Z,102632.30
2019-03-27T10:10:43.863Z,102633.97
2019-03-27T10:13:13.523Z,102627.48
2019-03-27T10:15:44.837Z,102635.73
2019-03-27T10:18:13.291Z,102637.08
2019-03-27T10:20:41.764Z,102642.62
2019-03-27T10:23:10.247Z,102631.95
2019-03-27T10:25:39.305Z,102622.46
2019-03-27T10:28:08.163Z,102621.30
2019-03-27T10:30:36.781Z,102624.42
2019-03-27T10:33:05.261Z,102624.23
2019-03-27T10:35:33.800Z,102615.75
2019-03-27T10:38:02.253Z,102618.53
2019-03-27T10:40:30.752Z,102614.96
2019-03-27T10:42:59.243Z,102612.19
2019-03-27T10:45:29.591Z,102612.28
2019-03-27T10:47:58.061Z,102613.63
2019-03-27T10:50:26.599Z,102606.84
2019-03-27T10:52:55.058Z,102613.92
2019-03-27T10:55:23.686Z,102611.80
2019-03-27T10:57:52.223Z,102615.34
2019-03-27T11:00:20.983Z,102621.35
2019-03-27T11:02:50.967Z,102626.97
2019-03-27T11:05:19.734Z,102621.27
2019-03-27T11:07:48.481Z,102624.56
2019-03-27T11:10:17.223Z,102630.28
2019-03-27T11:12:45.789Z,102633.97
2019-03-27T11:15:15.340Z,102632.61
2019-03-27T11:17:43.991Z,102641.92
2019-03-27T11:20:13.061Z,102640.25
2019-03-27T11:22:41.606Z,102645.97
2019-03-27T11:25:10.506Z,102645.67
2019-03-27T11:27:39.070Z,102648.66
2019-03-27T11:30:08.517Z,102650.59
2019-03-27T11:32:37.340Z,102645.06
2019-03-27T11:35:06.532Z,102639.55
2019-03-27T11:37:39.031Z,102632.86
2019-03-27T11:40:07.770Z,102634.33
2019-03-27T11:42:36.313Z,102629.19
2019-03-27T11:45:09.598Z,102628.25
2019-03-27T11:47:40.849Z,102599.25
2019-03-27T11:50:11.081Z,102635.33
2019-03-27T11:52:40.412Z,102622.92
2019-03-27T11:55:09.225Z,102631.34
2019-03-27T11:57:37.838Z,102632.02
2019-03-27T12:00:13.380Z,102631.64
2019-03-27T12:02:42.064Z,102631.09
2019-03-27T12:05:11.192Z,102632.80
2019-03-27T12:07:39.792Z,102633.77
2019-03-27T12:10:09.126Z,102630.11
2019-03-27T12:12:37.614Z,102637.94
2019-03-27T12:15:09.481Z,102636.69
2019-03-27T12:17:38.045Z,102644.81
2019-03-27T12:20:07.504Z,102649.11
2019-03-27T12:22:36.060Z,102646.08
2019-03-27T12:25:05.831Z,102640.55
2019-03-27T12:30:57.993Z,102643.23
2019-03-27T12:33:26.618Z,102651.02
2019-03-27T12:36:00.983Z,102650.64
2019-03-27T12:38:30.931Z,102653.61
2019-03-27T12:40:59.429Z,102651.44
2019-03-27T12:43:27.964Z,102654.55
2019-03-27T12:45:56.479Z,102650.28
2019-03-27T12:48:25.058Z,102649.83
2019-03-27T12:50:53.513Z,102650.12
2019-03-27T12:53:22.771Z,102659.97
2019-03-27T12:55:54.558Z,102645.98
2019-03-27T12:58:24.955Z,102651.14
2019-03-27T13:00:53.495Z,102651.61
2019-03-27T13:03:22.129Z,102652.63
2019-03-27T13:05:50.625Z,102648.27
2019-03-27T13:08:21.236Z,102650.48
2019-03-27T13:10:49.408Z,102655.62
2019-03-27T13:13:20.990Z,102658.50
2019-03-27T13:15:49.842Z,102657.80
2019-03-27T13:18:19.579Z,102655.17
2019-03-27T13:20:57.584Z,102656.61
2019-03-27T13:23:26.156Z,102650.05
2019-03-27T13:26:05.247Z,102649.92
2019-03-27T13:28:48.290Z,102652.83
2019-03-27T13:31:08.798Z,102649.42
2019-03-27T13:33:38.267Z,102651.64
2019-03-27T13:36:07.813Z,102649.18
2019-03-27T13:38:37.849Z,102652.84
2019-03-27T13:41:06.397Z,102651.06
2019-03-27T13:43:34.859Z,102652.50
2019-03-27T13:46:03.439Z,102652.58
2019-03-27T13:48:34.317Z,102655.29
2019-03-27T13:51:02.856Z,102650.00
2019-03-27T13:53:31.360Z,102581.98
2019-03-27T13:56:03.804Z,102645.31
2019-03-27T13:58:34.234Z,102645.27
2019-03-27T14:01:08.908Z,102651.34
2019-03-27T14:03:37.602Z,102650.69
2019-03-27T14:06:06.147Z,102654.18
2019-03-27T14:08:34.730Z,102647.77
2019-03-27T14:11:06.454Z,102651.67
2019-03-27T14:13:34.950Z,102650.36
2019-03-27T14:16:03.564Z,102654.80
2019-03-27T14:18:32.061Z,102642.92
2019-03-27T14:21:01.831Z,102640.79
2019-03-27T14:23:31.984Z,102638.71
2019-03-27T14:26:00.648Z,102633.91
2019-03-27T14:28:29.239Z,102636.53
2019-03-27T14:30:58.698Z,102636.83
2019-03-27T14:33:27.326Z,102633.66
2019-03-27T14:35:55.862Z,102634.73
2019-03-27T14:38:24.485Z,102632.31
2019-03-27T14:40:53.115Z,102629.39
2019-03-27T14:43:21.660Z,102639.08
2019-03-27T14:45:50.570Z,102639.20
2019-03-27T14:48:19.130Z,102630.13
2019-03-27T14:50:47.603Z,102639.33
2019-03-27T14:53:16.196Z,102634.89
2019-03-27T14:55:44.632Z,102635.47
2019-03-27T14:58:13.080Z,102640.23
2019-03-27T15:00:41.703Z,102638.09
2019-03-27T15:03:10.238Z,102643.03
2019-03-27T15:05:38.768Z,102640.31
2019-03-27T15:08:07.343Z,102640.11
2019-03-27T15:10:35.908Z,102643.31
2019-03-27T15:13:04.597Z,102650.37
2019-03-27T15:15:33.179Z,102643.80
2019-03-27T15:18:01.833Z,102645.65
2019-03-27T15:20:30.328Z,102644.21
2019-03-27T15:22:58.800Z,102647.13
2019-03-27T15:25:27.446Z,102648.93
2019-03-27T15:27:56.032Z,102647.20
2019-03-27T15:30:24.653Z,102651.48
2019-03-27T15:32:53.276Z,102650.16
2019-03-27T15:35:21.870Z,102649.59
2019-03-27T15:37:50.865Z,102645.23
2019-03-27T15:40:31.569Z,102648.56
2019-03-27T15:43:00.122Z,102652.91
2019-03-27T15:45:28.666Z,102644.66
2019-03-27T15:47:57.221Z,102651.73
2019-03-27T15:50:25.914Z,102649.59
2019-03-27T15:52:54.464Z,102652.70
2019-03-27T15:55:25.806Z,102649.59
2019-03-27T15:57:54.470Z,102653.44
2019-03-27T16:00:23.206Z,102653.19
2019-03-27T16:02:51.760Z,102663.20
2019-03-27T16:05:20.500Z,102656.02
2019-03-27T16:07:49.065Z,102659.88
2019-03-27T16:10:18.526Z,102658.80
2019-03-27T16:12:48.558Z,102659.80
2019-03-27T16:15:17.580Z,102664.80
2019-03-27T16:17:49.216Z,102656.55
2019-03-27T16:20:20.170Z,102668.36
2019-03-27T16:22:51.139Z,102662.23
2019-03-27T16:25:23.044Z,102664.54
2019-03-27T16:27:51.519Z,102665.89
2019-03-27T16:30:20.218Z,102662.73
2019-03-27T16:32:48.679Z,102662.40
2019-03-27T16:35:17.380Z,102664.66
2019-03-27T16:37:47.605Z,102659.32
2019-03-27T16:40:17.675Z,102661.54
2019-03-27T16:42:46.179Z,102661.70
2019-03-27T16:45:15.013Z,102662.27
2019-03-27T16:47:43.730Z,102663.55
2019-03-27T16:50:13.073Z,102673.02
2019-03-27T16:52:41.532Z,102663.05
2019-03-27T16:55:10.535Z,102664.16
2019-03-27T16:57:39.028Z,102669.66
2019-03-27T17:00:08.851Z,102664.03
2019-03-27T17:02:40.060Z,102659.97
2019-03-27T17:05:08.744Z,102664.11
2019-03-27T17:07:37.228Z,102661.24
2019-03-27T17:10:09.144Z,102670.09
2019-03-27T17:12:38.228Z,102669.80
2019-03-27T17:15:07.354Z,102666.47
2019-03-27T17:17:35.889Z,102668.12
2019-03-27T17:20:10.604Z,102670.31
2019-03-27T17:22:38.340Z,102671.09
2019-03-27T17:25:08.252Z,102666.64
2019-03-27T17:27:37.391Z,102666.73
2019-03-27T17:30:08.930Z,102670.84
2019-03-27T17:32:37.473Z,102668.55
2019-03-27T17:38:37.949Z,102676.02
2019-03-27T17:41:06.534Z,102672.69
2019-03-27T17:43:35.427Z,102680.48
2019-03-27T17:46:06.975Z,102685.02
2019-03-27T17:48:35.461Z,102681.34
2019-03-27T17:51:04.418Z,102685.81
2019-03-27T17:53:32.915Z,102691.95
2019-03-27T17:56:01.391Z,102686.87
2019-03-27T17:58:29.971Z,102690.92
2019-03-27T18:00:58.701Z,102695.16
2019-03-27T18:03:28.822Z,102694.42
2019-03-27T18:05:57.357Z,102701.97
2019-03-27T18:11:22.576Z,102703.00
2019-03-27T18:13:51.075Z,102714.09
2019-03-27T18:16:19.937Z,102721.27
2019-03-27T18:18:48.540Z,102717.58
2019-03-27T18:21:17.082Z,102721.72
2019-03-27T18:23:47.134Z,102728.19
2019-03-27T18:26:15.747Z,102724.69
2019-03-27T18:28:44.260Z,102730.89
2019-03-27T18:31:13.079Z,102724.39
2019-03-27T18:33:41.557Z,102725.75
2019-03-27T18:36:10.197Z,102723.83
2019-03-27T18:38:42.007Z,102730.03
2019-03-27T18:41:10.548Z,102723.98
2019-03-27T18:43:39.105Z,102722.47
2019-03-27T18:46:07.597Z,102727.96
2019-03-27T18:48:36.075Z,102726.91
2019-03-27T18:51:04.756Z,102725.55
2019-03-27T18:53:33.338Z,102730.03
2019-03-27T18:56:01.814Z,102732.33
2019-03-27T18:58:30.368Z,102732.59
2019-03-27T19:00:58.920Z,102733.86
2019-03-27T19:03:27.570Z,102735.63
2019-03-27T19:05:56.195Z,102731.95
2019-03-27T19:08:24.747Z,102730.26
2019-03-27T19:10:53.424Z,102739.73
2019-03-27T19:13:22.072Z,102738.23
2019-03-27T19:15:52.145Z,102728.12
2019-03-27T19:18:26.788Z,102730.52
2019-03-27T19:20:51.325Z,102728.04
2019-03-27T19:23:22.561Z,102725.03
2019-03-27T19:25:51.156Z,102727.41
2019-03-27T19:28:21.705Z,102730.59
2019-03-27T19:30:50.316Z,102729.25
2019-03-27T19:33:18.811Z,102734.17
2019-03-27T19:35:47.325Z,102722.10
2019-03-27T19:38:15.951Z,102737.13
2019-03-27T19:40:44.546Z,102730.22
2019-03-27T19:43:13.032Z,102738.19
2019-03-27T19:45:41.654Z,102741.98
2019-03-27T19:48:13.306Z,102739.28
2019-03-27T19:50:41.802Z,102739.05
2019-03-27T19:53:10.361Z,102739.61
2019-03-27T19:55:40.060Z,102735.48
2019-03-27T19:58:10.148Z,102736.69
2019-03-27T20:00:39.332Z,102740.10
2019-03-27T20:03:07.985Z,102742.31
2019-03-27T20:05:36.459Z,102744.30
2019-03-27T20:08:05.277Z,102744.95
2019-03-27T20:10:36.137Z,102747.80
2019-03-27T20:13:04.784Z,102754.34
2019-03-27T20:15:33.409Z,102751.81
2019-03-27T20:18:06.793Z,102748.62
2019-03-27T20:20:35.819Z,102742.09
2019-03-27T20:23:14.907Z,102743.86
2019-03-27T20:25:36.148Z,102742.65
2019-03-27T20:28:04.798Z,102740.43
2019-03-27T20:30:33.396Z,102739.88
2019-03-27T20:33:02.030Z,102743.86
2019-03-27T20:35:31.563Z,102739.38
2019-03-27T20:38:00.281Z,102738.59
2019-03-27T20:40:30.757Z,102742.34
2019-03-27T20:43:02.133Z,102746.62
2019-03-27T20:45:30.628Z,102742.19
2019-03-27T20:47:59.109Z,102743.92
2019-03-27T20:50:27.704Z,102741.05
2019-03-27T20:52:56.224Z,102739.25
2019-03-27T20:55:30.446Z,102745.12
2019-03-27T20:57:55.152Z,102745.91
2019-03-27T21:00:23.898Z,102747.98
2019-03-27T21:02:52.475Z,102748.87
2019-03-27T21:05:21.168Z,102745.45
2019-03-27T21:07:49.713Z,102742.89
2019-03-27T21:10:21.040Z,102744.25
2019-03-27T21:12:53.797Z,102746.06
2019-03-27T21:15:22.037Z,102737.72
2019-03-27T21:17:50.615Z,102742.75
2019-03-27T21:20:19.278Z,102741.47
2019-03-27T21:22:48.013Z,102748.37
2019-03-27T21:25:16.940Z,102748.80
2019-03-27T21:27:47.998Z,102752.44
2019-03-27T21:30:17.012Z,102754.50
2019-03-27T21:32:50.593Z,102757.30
2019-03-27T21:35:19.347Z,102754.04
2019-03-27T21:37:48.559Z,102753.80
2019-03-27T21:40:18.815Z,102755.70
2019-03-27T21:42:48.629Z,102762.23
2019-03-27T21:45:17.956Z,102761.43
2019-03-27T21:47:46.465Z,102768.61
2019-03-27T21:50:15.194Z,102767.08
2019-03-27T21:52:44.551Z,102767.08
2019-03-27T21:55:22.420Z,102766.20
2019-03-27T21:57:46.080Z,102772.89
2019-03-27T22:00:37.754Z,102772.72
2019-03-27T22:03:12.422Z,102776.61
2019-03-27T22:05:40.267Z,102771.20
2019-03-27T22:08:09.258Z,102770.80
2019-03-27T22:10:39.395Z,102773.11
2019-03-27T22:13:07.882Z,102776.61
2019-03-27T22:15:36.612Z,102773.53
2019-03-27T22:18:06.397Z,102780.05
2019-03-27T22:20:35.032Z,102787.12
2019-03-27T22:23:03.627Z,102785.35
2019-03-27T22:25:36.302Z,102783.14
2019-03-27T22:28:04.547Z,102791.32
2019-03-27T22:30:33.059Z,102792.11
2019-03-27T22:33:02.821Z,102791.32
2019-03-27T22:35:31.345Z,102792.94
2019-03-27T22:38:00.307Z,102797.06
2019-03-27T22:40:28.873Z,102795.38
2019-03-27T22:42:57.641Z,102796.66
2019-03-27T22:45:30.952Z,102792.60
2019-03-27T22:47:59.496Z,102793.95
2019-03-27T22:50:52.094Z,102794.37
2019-03-27T22:53:20.955Z,102801.97
2019-03-27T22:55:50.668Z,102797.77
2019-03-27T22:58:20.717Z,102799.61
2019-03-27T23:00:53.239Z,102802.80
2019-03-27T23:03:23.660Z,102807.47
2019-03-27T23:05:52.319Z,102816.14
2019-03-27T23:08:20.993Z,102806.30
2019-03-27T23:10:52.112Z,102813.85
2019-03-27T23:13:20.630Z,102809.00
2019-03-27T23:15:51.607Z,102812.09
2019-03-27T23:18:20.099Z,102814.09
2019-03-27T23:20:50.271Z,102810.73
2019-03-27T23:23:20.866Z,102818.70
2019-03-27T23:26:02.462Z,102810.03
2019-03-27T23:28:20.860Z,102808.89
2019-03-27T23:30:49.362Z,102815.44
2019-03-27T23:33:20.293Z,102813.75
2019-03-27T23:35:48.313Z,102805.02
2019-03-27T23:38:20.389Z,102802.94
2019-03-27T23:40:48.907Z,102797.45
2019-03-27T23:43:17.398Z,102797.52
2019-03-27T23:45:45.975Z,102801.05
2019-03-27T23:51:08.661Z,102797.62
2019-03-27T23:53:37.249Z,102797.86
2019-03-27T23:56:15.811Z,102802.41
2019-03-27T23:58:36.164Z,102801.75
